sensor_id;sensor_type;location;lat;lon;timestamp;P1;durP1;ratioP1;P2;durP2;ratioP2
59093;SDS011;44880;52.814;18.270;2022-09-13T14:11:10;12.00;;;7.10;;
59093;SDS011;44880;52.814;18.270;2022-09-13T14:24:26;12.40;;;8.10;;
59093;SDS011;44880;52.814;18.270;2022-09-13T14:32:38;12.60;;;8.30;;
59093;SDS011;44880;52.814;18.270;2022-09-13T14:35:43;12.70;;;8.90;;
59093;SDS011;44880;52.814;18.270;2022-09-13T14:41:17;16.00;;;9.40;;
59093;SDS011;44880;52.814;18.270;2022-09-13T14:43:48;15.40;;;10.60;;
59093;SDS011;44880;52.814;18.270;2022-09-13T14:46:36;14.60;;;10.30;;
59093;SDS011;44880;52.814;18.270;2022-09-13T14:49:29;14.90;;;11.30;;
59093;SDS011;44880;52.814;18.270;2022-09-13T14:52:23;13.70;;;10.40;;
59093;SDS011;44880;52.814;18.270;2022-09-13T14:55:04;14.20;;;9.90;;
59093;SDS011;44880;52.814;18.270;2022-09-13T14:57:52;14.70;;;10.80;;
59093;SDS011;44880;52.814;18.270;2022-09-13T15:00:42;14.20;;;9.80;;
59093;SDS011;44880;52.814;18.270;2022-09-13T15:12:23;14.30;;;8.80;;
59093;SDS011;44880;52.814;18.270;2022-09-13T15:34:20;14.10;;;8.80;;
59093;SDS011;44880;52.814;18.270;2022-09-13T15:43:15;13.80;;;9.00;;
59093;SDS011;44880;52.814;18.270;2022-09-13T15:45:44;13.80;;;8.80;;
59093;SDS011;44880;52.814;18.270;2022-09-13T15:48:29;13.50;;;9.00;;
59093;SDS011;44880;52.814;18.270;2022-09-13T15:54:30;14.00;;;8.50;;
59093;SDS011;44880;52.814;18.270;2022-09-13T15:56:59;13.40;;;9.00;;
59093;SDS011;44880;52.814;18.270;2022-09-13T16:08:49;12.90;;;8.10;;
59093;SDS011;44880;52.814;18.270;2022-09-13T16:11:35;14.50;;;8.10;;
59093;SDS011;44880;52.814;18.270;2022-09-13T16:14:17;13.80;;;8.10;;
59093;SDS011;44880;52.814;18.270;2022-09-13T16:23:17;14.40;;;8.80;;
59093;SDS011;44880;52.814;18.270;2022-09-13T16:31:41;13.80;;;8.80;;
59093;SDS011;44880;52.814;18.270;2022-09-13T16:34:11;16.10;;;9.30;;
59093;SDS011;44880;52.814;18.270;2022-09-13T16:42:57;14.20;;;9.90;;
59093;SDS011;44880;52.814;18.270;2022-09-13T16:45:26;15.50;;;10.10;;
59093;SDS011;44880;52.814;18.270;2022-09-13T16:48:10;15.90;;;10.20;;
59093;SDS011;44880;52.814;18.270;2022-09-13T16:50:39;14.40;;;8.40;;
59093;SDS011;44880;52.814;18.270;2022-09-13T16:53:11;13.40;;;9.30;;
59093;SDS011;44880;52.814;18.270;2022-09-13T16:58:18;14.10;;;8.70;;
59093;SDS011;44880;52.814;18.270;2022-09-13T17:00:47;16.00;;;9.70;;
59093;SDS011;44880;52.814;18.270;2022-09-13T17:03:15;15.00;;;9.60;;
59093;SDS011;44880;52.814;18.270;2022-09-13T17:05:44;15.60;;;10.50;;
59093;SDS011;44880;52.814;18.270;2022-09-13T17:08:24;16.00;;;11.00;;
59093;SDS011;44880;52.814;18.270;2022-09-13T17:10:53;16.20;;;10.80;;
59093;SDS011;44880;52.814;18.270;2022-09-13T17:13:22;15.10;;;9.90;;
59093;SDS011;44880;52.814;18.270;2022-09-13T17:15:51;16.00;;;11.40;;
59093;SDS011;44880;52.814;18.270;2022-09-13T17:18:19;16.20;;;10.90;;
59093;SDS011;44880;52.814;18.270;2022-09-13T17:20:48;17.50;;;12.00;;
59093;SDS011;44880;52.814;18.270;2022-09-13T17:23:18;17.30;;;12.10;;
59093;SDS011;44880;52.814;18.270;2022-09-13T17:25:47;16.70;;;12.00;;
59093;SDS011;44880;52.814;18.270;2022-09-13T17:28:16;24.70;;;14.90;;
59093;SDS011;44880;52.814;18.270;2022-09-13T17:30:46;32.60;;;18.80;;
59093;SDS011;44880;52.814;18.270;2022-09-13T17:33:20;27.30;;;16.70;;
59093;SDS011;44880;52.814;18.270;2022-09-13T17:36:14;23.70;;;14.90;;
59093;SDS011;44880;52.814;18.270;2022-09-13T17:38:57;26.10;;;15.70;;
59093;SDS011;44880;52.814;18.270;2022-09-13T17:41:26;20.00;;;13.60;;
59093;SDS011;44880;52.814;18.270;2022-09-13T17:43:54;23.80;;;15.70;;
59093;SDS011;44880;52.814;18.270;2022-09-13T17:46:24;26.20;;;15.80;;
59093;SDS011;44880;52.814;18.270;2022-09-13T17:51:24;20.10;;;13.10;;
59093;SDS011;44880;52.814;18.270;2022-09-13T17:53:54;17.30;;;12.30;;
59093;SDS011;44880;52.814;18.270;2022-09-13T17:56:25;17.00;;;12.40;;
59093;SDS011;44880;52.814;18.270;2022-09-13T17:58:56;17.60;;;11.10;;
59093;SDS011;44880;52.814;18.270;2022-09-13T18:01:30;18.20;;;12.10;;
59093;SDS011;44880;52.814;18.270;2022-09-13T18:03:59;18.60;;;12.60;;
59093;SDS011;44880;52.814;18.270;2022-09-13T18:06:28;16.90;;;11.50;;
59093;SDS011;44880;52.814;18.270;2022-09-13T18:08:57;19.10;;;12.20;;
59093;SDS011;44880;52.814;18.270;2022-09-13T18:11:26;16.10;;;11.00;;
59093;SDS011;44880;52.814;18.270;2022-09-13T18:13:55;17.90;;;12.40;;
59093;SDS011;44880;52.814;18.270;2022-09-13T18:16:25;17.90;;;12.80;;
59093;SDS011;44880;52.814;18.270;2022-09-13T18:18:54;19.00;;;13.20;;
59093;SDS011;44880;52.814;18.270;2022-09-13T18:21:23;20.70;;;14.40;;
59093;SDS011;44880;52.814;18.270;2022-09-13T18:23:53;22.20;;;15.60;;
59093;SDS011;44880;52.814;18.270;2022-09-13T18:26:26;22.70;;;14.50;;
59093;SDS011;44880;52.814;18.270;2022-09-13T18:29:13;20.00;;;14.30;;
59093;SDS011;44880;52.814;18.270;2022-09-13T18:31:47;19.40;;;14.50;;
59093;SDS011;44880;52.814;18.270;2022-09-13T18:34:16;21.80;;;15.50;;
59093;SDS011;44880;52.814;18.270;2022-09-13T18:36:45;22.20;;;16.10;;
59093;SDS011;44880;52.814;18.270;2022-09-13T18:39:15;23.10;;;18.60;;
59093;SDS011;44880;52.814;18.270;2022-09-13T18:41:44;29.00;;;21.30;;
59093;SDS011;44880;52.814;18.270;2022-09-13T18:44:15;28.10;;;20.00;;
59093;SDS011;44880;52.814;18.270;2022-09-13T18:46:45;24.10;;;18.30;;
59093;SDS011;44880;52.814;18.270;2022-09-13T18:49:16;29.90;;;21.10;;
59093;SDS011;44880;52.814;18.270;2022-09-13T18:51:45;26.50;;;19.30;;
59093;SDS011;44880;52.814;18.270;2022-09-13T18:54:15;22.20;;;15.20;;
59093;SDS011;44880;52.814;18.270;2022-09-13T18:56:45;18.20;;;12.60;;
59093;SDS011;44880;52.814;18.270;2022-09-13T18:59:15;19.20;;;12.60;;
59093;SDS011;44880;52.814;18.270;2022-09-13T19:01:44;20.70;;;14.30;;
59093;SDS011;44880;52.814;18.270;2022-09-13T19:04:14;19.30;;;13.20;;
59093;SDS011;44880;52.814;18.270;2022-09-13T19:06:45;17.60;;;12.20;;
59093;SDS011;44880;52.814;18.270;2022-09-13T19:09:15;19.80;;;14.40;;
59093;SDS011;44880;52.814;18.270;2022-09-13T19:11:49;20.60;;;14.00;;
59093;SDS011;44880;52.814;18.270;2022-09-13T19:14:19;21.00;;;13.10;;
59093;SDS011;44880;52.814;18.270;2022-09-13T19:16:51;24.10;;;15.90;;
59093;SDS011;44880;52.814;18.270;2022-09-13T19:19:22;20.40;;;14.20;;
59093;SDS011;44880;52.814;18.270;2022-09-13T19:21:52;19.50;;;13.50;;
59093;SDS011;44880;52.814;18.270;2022-09-13T19:24:21;18.80;;;13.40;;
59093;SDS011;44880;52.814;18.270;2022-09-13T19:26:50;19.90;;;13.80;;
59093;SDS011;44880;52.814;18.270;2022-09-13T19:29:19;20.50;;;13.40;;
59093;SDS011;44880;52.814;18.270;2022-09-13T19:31:49;20.40;;;15.20;;
59093;SDS011;44880;52.814;18.270;2022-09-13T19:34:19;19.00;;;14.30;;
59093;SDS011;44880;52.814;18.270;2022-09-13T19:36:49;20.20;;;14.40;;
59093;SDS011;44880;52.814;18.270;2022-09-13T19:39:23;23.10;;;16.50;;
59093;SDS011;44880;52.814;18.270;2022-09-13T19:41:52;20.60;;;13.90;;
59093;SDS011;44880;52.814;18.270;2022-09-13T19:44:21;20.00;;;14.60;;
59093;SDS011;44880;52.814;18.270;2022-09-13T19:46:50;19.10;;;13.40;;
59093;SDS011;44880;52.814;18.270;2022-09-13T19:49:19;17.40;;;12.30;;
59093;SDS011;44880;52.814;18.270;2022-09-13T19:51:48;18.10;;;13.40;;
59093;SDS011;44880;52.814;18.270;2022-09-13T19:54:18;18.70;;;12.90;;
59093;SDS011;44880;52.814;18.270;2022-09-13T19:56:54;18.10;;;13.00;;
59093;SDS011;44880;52.814;18.270;2022-09-13T19:59:23;18.70;;;12.50;;
59093;SDS011;44880;52.814;18.270;2022-09-13T20:01:52;19.00;;;13.00;;
59093;SDS011;44880;52.814;18.270;2022-09-13T20:04:21;18.40;;;12.30;;
59093;SDS011;44880;52.814;18.270;2022-09-13T20:06:50;18.00;;;12.20;;
59093;SDS011;44880;52.814;18.270;2022-09-13T20:09:20;18.70;;;12.80;;
59093;SDS011;44880;52.814;18.270;2022-09-13T20:11:49;18.30;;;13.10;;
59093;SDS011;44880;52.814;18.270;2022-09-13T20:14:25;18.60;;;14.00;;
59093;SDS011;44880;52.814;18.270;2022-09-13T20:16:54;18.80;;;13.80;;
59093;SDS011;44880;52.814;18.270;2022-09-13T20:19:25;17.30;;;12.30;;
59093;SDS011;44880;52.814;18.270;2022-09-13T20:21:54;16.80;;;12.00;;
59093;SDS011;44880;52.814;18.270;2022-09-13T20:24:23;16.70;;;11.60;;
59093;SDS011;44880;52.814;18.270;2022-09-13T20:26:52;17.50;;;12.60;;
59093;SDS011;44880;52.814;18.270;2022-09-13T20:29:21;16.70;;;11.40;;
59093;SDS011;44880;52.814;18.270;2022-09-13T20:31:50;15.80;;;11.10;;
59093;SDS011;44880;52.814;18.270;2022-09-13T20:34:21;16.10;;;11.50;;
59093;SDS011;44880;52.814;18.270;2022-09-13T20:36:50;16.50;;;10.80;;
59093;SDS011;44880;52.814;18.270;2022-09-13T20:39:22;15.20;;;11.40;;
59093;SDS011;44880;52.814;18.270;2022-09-13T20:41:51;17.10;;;12.20;;
59093;SDS011;44880;52.814;18.270;2022-09-13T20:44:21;17.20;;;12.40;;
59093;SDS011;44880;52.814;18.270;2022-09-13T20:46:50;18.10;;;12.90;;
59093;SDS011;44880;52.814;18.270;2022-09-13T20:49:19;16.70;;;11.90;;
59093;SDS011;44880;52.814;18.270;2022-09-13T20:51:48;19.80;;;13.60;;
59093;SDS011;44880;52.814;18.270;2022-09-13T20:54:17;25.30;;;17.80;;
59093;SDS011;44880;52.814;18.270;2022-09-13T20:56:46;20.10;;;15.10;;
59093;SDS011;44880;52.814;18.270;2022-09-13T20:59:15;23.00;;;16.80;;
59093;SDS011;44880;52.814;18.270;2022-09-13T21:01:44;28.70;;;18.00;;
59093;SDS011;44880;52.814;18.270;2022-09-13T21:04:15;24.90;;;16.60;;
59093;SDS011;44880;52.814;18.270;2022-09-13T21:06:44;18.40;;;13.20;;
59093;SDS011;44880;52.814;18.270;2022-09-13T21:09:31;16.00;;;11.90;;
59093;SDS011;44880;52.814;18.270;2022-09-13T21:11:59;17.20;;;11.50;;
59093;SDS011;44880;52.814;18.270;2022-09-13T21:14:28;18.50;;;12.10;;
59093;SDS011;44880;52.814;18.270;2022-09-13T21:16:58;17.70;;;12.60;;
59093;SDS011;44880;52.814;18.270;2022-09-13T21:19:28;18.30;;;13.50;;
59093;SDS011;44880;52.814;18.270;2022-09-13T21:21:57;17.20;;;13.20;;
59093;SDS011;44880;52.814;18.270;2022-09-13T21:24:27;18.10;;;13.40;;
59093;SDS011;44880;52.814;18.270;2022-09-13T21:26:56;16.70;;;13.00;;
59093;SDS011;44880;52.814;18.270;2022-09-13T21:29:25;17.00;;;12.70;;
59093;SDS011;44880;52.814;18.270;2022-09-13T21:31:54;16.90;;;12.70;;
59093;SDS011;44880;52.814;18.270;2022-09-13T21:34:23;17.00;;;11.60;;
59093;SDS011;44880;52.814;18.270;2022-09-13T21:36:52;17.20;;;12.40;;
59093;SDS011;44880;52.814;18.270;2022-09-13T21:39:22;17.20;;;11.90;;
59093;SDS011;44880;52.814;18.270;2022-09-13T21:41:51;17.00;;;11.50;;
59093;SDS011;44880;52.814;18.270;2022-09-13T21:44:20;16.70;;;12.10;;
59093;SDS011;44880;52.814;18.270;2022-09-13T21:46:49;18.40;;;12.90;;
59093;SDS011;44880;52.814;18.270;2022-09-13T21:49:17;18.50;;;13.10;;
59093;SDS011;44880;52.814;18.270;2022-09-13T21:51:47;18.10;;;13.10;;
59093;SDS011;44880;52.814;18.270;2022-09-13T21:54:16;18.70;;;13.70;;
59093;SDS011;44880;52.814;18.270;2022-09-13T21:56:48;18.30;;;12.50;;
59093;SDS011;44880;52.814;18.270;2022-09-13T21:59:18;20.20;;;13.30;;
59093;SDS011;44880;52.814;18.270;2022-09-13T22:01:48;18.90;;;13.20;;
59093;SDS011;44880;52.814;18.270;2022-09-13T22:04:18;17.30;;;12.70;;
59093;SDS011;44880;52.814;18.270;2022-09-13T22:06:49;18.80;;;13.80;;
59093;SDS011;44880;52.814;18.270;2022-09-13T22:09:21;19.10;;;13.50;;
59093;SDS011;44880;52.814;18.270;2022-09-13T22:11:52;18.90;;;13.20;;
59093;SDS011;44880;52.814;18.270;2022-09-13T22:14:21;17.50;;;12.80;;
59093;SDS011;44880;52.814;18.270;2022-09-13T22:16:50;19.90;;;13.60;;
59093;SDS011;44880;52.814;18.270;2022-09-13T22:19:19;18.80;;;13.20;;
59093;SDS011;44880;52.814;18.270;2022-09-13T22:21:51;20.00;;;14.50;;
59093;SDS011;44880;52.814;18.270;2022-09-13T22:24:22;21.20;;;14.70;;
59093;SDS011;44880;52.814;18.270;2022-09-13T22:26:51;19.60;;;14.90;;
59093;SDS011;44880;52.814;18.270;2022-09-13T22:29:22;19.60;;;14.30;;
59093;SDS011;44880;52.814;18.270;2022-09-13T22:31:50;20.30;;;14.60;;
59093;SDS011;44880;52.814;18.270;2022-09-13T22:34:20;18.50;;;13.30;;
59093;SDS011;44880;52.814;18.270;2022-09-13T22:36:51;19.60;;;13.80;;
59093;SDS011;44880;52.814;18.270;2022-09-13T22:39:21;22.30;;;15.90;;
59093;SDS011;44880;52.814;18.270;2022-09-13T22:41:50;23.70;;;16.40;;
59093;SDS011;44880;52.814;18.270;2022-09-13T22:44:19;21.30;;;15.30;;
59093;SDS011;44880;52.814;18.270;2022-09-13T22:46:48;20.50;;;14.30;;
59093;SDS011;44880;52.814;18.270;2022-09-13T22:49:17;19.80;;;13.80;;
59093;SDS011;44880;52.814;18.270;2022-09-13T22:51:47;21.90;;;15.70;;
59093;SDS011;44880;52.814;18.270;2022-09-13T22:54:16;23.70;;;16.60;;
59093;SDS011;44880;52.814;18.270;2022-09-13T22:56:45;24.60;;;17.80;;
59093;SDS011;44880;52.814;18.270;2022-09-13T22:59:15;24.30;;;16.80;;
59093;SDS011;44880;52.814;18.270;2022-09-13T23:01:44;22.10;;;15.80;;
59093;SDS011;44880;52.814;18.270;2022-09-13T23:04:13;18.80;;;13.60;;
59093;SDS011;44880;52.814;18.270;2022-09-13T23:06:42;17.80;;;12.80;;
59093;SDS011;44880;52.814;18.270;2022-09-13T23:09:12;18.70;;;12.70;;
59093;SDS011;44880;52.814;18.270;2022-09-13T23:11:43;18.70;;;12.70;;
59093;SDS011;44880;52.814;18.270;2022-09-13T23:14:13;18.90;;;13.50;;
59093;SDS011;44880;52.814;18.270;2022-09-13T23:16:43;19.90;;;13.00;;
59093;SDS011;44880;52.814;18.270;2022-09-13T23:19:14;19.90;;;13.40;;
59093;SDS011;44880;52.814;18.270;2022-09-13T23:21:44;19.60;;;14.10;;
59093;SDS011;44880;52.814;18.270;2022-09-13T23:24:13;21.30;;;14.10;;
59093;SDS011;44880;52.814;18.270;2022-09-13T23:26:43;18.40;;;12.00;;
59093;SDS011;44880;52.814;18.270;2022-09-13T23:29:13;16.90;;;11.70;;
59093;SDS011;44880;52.814;18.270;2022-09-13T23:31:43;17.50;;;11.70;;
59093;SDS011;44880;52.814;18.270;2022-09-13T23:34:13;18.10;;;11.90;;
59093;SDS011;44880;52.814;18.270;2022-09-13T23:36:43;17.00;;;11.50;;
59093;SDS011;44880;52.814;18.270;2022-09-13T23:39:13;17.00;;;12.00;;
59093;SDS011;44880;52.814;18.270;2022-09-13T23:41:43;17.00;;;11.30;;
59093;SDS011;44880;52.814;18.270;2022-09-13T23:44:12;16.70;;;11.40;;
59093;SDS011;44880;52.814;18.270;2022-09-13T23:46:41;16.70;;;11.80;;
59093;SDS011;44880;52.814;18.270;2022-09-13T23:49:11;18.00;;;11.70;;
59093;SDS011;44880;52.814;18.270;2022-09-13T23:51:40;16.50;;;12.20;;
59093;SDS011;44880;52.814;18.270;2022-09-13T23:54:09;17.90;;;13.30;;
59093;SDS011;44880;52.814;18.270;2022-09-13T23:56:39;19.50;;;13.60;;
59093;SDS011;44880;52.814;18.270;2022-09-13T23:59:08;21.30;;;14.60;;
